Time;durP1;ratioP1;P1;durP2;ratioP2;P2;SDS_P1;SDS_P2;PMS_P1;PMS_P2;Temp;Humidity;BMP_temperature;BMP_pressure;BME280_temperature;BME280_humidity;BME280_pressure;Samples;Min_cycle;Max_cycle;Signal;HPM_P1;HPM_P2
2022/07/06 00:02:27;;;;;;;6.50;2.83;;;;;;;18.87;49.45;99552.91;2621495;54;20034;-67
2022/07/06 00:04:57;;;;;;;2.47;2.17;;;;;;;18.77;49.77;99566.84;2620958;47;20033;-68
2022/07/06 00:07:30;;;;;;;7.43;2.65;;;;;;;18.76;49.54;99570.56;2621785;54;20044;-68
2022/07/06 00:10:00;;;;;;;12.00;2.95;;;;;;;18.78;49.51;99569.31;2621834;54;20037;-68
2022/07/06 00:12:29;;;;;;;3.80;3.03;;;;;;;18.86;49.78;99572.69;2622565;54;20066;-68
2022/07/06 00:14:59;;;;;;;6.38;2.80;;;;;;;18.81;49.76;99579.53;2622227;47;20042;-68
2022/07/06 00:17:28;;;;;;;6.25;2.58;;;;;;;18.85;49.94;99579.91;2622215;54;20042;-68
2022/07/06 00:19:58;;;;;;;3.15;2.80;;;;;;;18.85;49.44;99576.41;2621690;54;20026;-69
2022/07/06 00:22:30;;;;;;;4.18;2.83;;;;;;;18.84;49.46;99580.16;2620050;47;20047;-69
2022/07/06 00:25:00;;;;;;;5.65;2.97;;;;;;;18.83;49.65;99573.16;2620483;54;20033;-69
2022/07/06 00:27:29;;;;;;;4.50;2.83;;;;;;;18.83;49.83;99571.31;2620237;54;20050;-69
2022/07/06 00:29:59;;;;;;;6.03;2.35;;;;;;;18.81;49.78;99576.03;2619535;54;20035;-68
2022/07/06 00:32:29;;;;;;;5.25;2.50;;;;;;;18.75;49.91;99575.09;2619470;47;20557;-69
2022/07/06 00:34:58;;;;;;;6.45;2.90;;;;;;;18.73;50.22;99569.16;2619887;47;20030;-69
2022/07/06 00:37:30;;;;;;;7.15;2.80;;;;;;;18.67;50.47;99579.94;2620054;54;20046;-68
2022/07/06 00:40:00;;;;;;;3.45;2.30;;;;;;;18.61;50.55;99578.16;2619991;54;20030;-68
2022/07/06 00:42:30;;;;;;;4.72;2.67;;;;;;;18.59;50.41;99582.94;2620423;54;20038;-67
2022/07/06 00:44:59;;;;;;;4.00;2.58;;;;;;;18.50;50.44;99577.88;2621779;54;20041;-68
2022/07/06 00:47:29;;;;;;;3.33;2.60;;;;;;;18.48;50.80;99589.84;2621990;54;20030;-66
2022/07/06 00:52:57;;;;;;;8.73;3.22;;;;;;;18.42;50.94;99578.19;2621287;54;20019;-67
2022/07/06 00:55:28;;;;;;;5.18;2.20;;;;;;;18.34;50.78;99583.03;2622168;54;20026;-66
2022/07/06 00:57:59;;;;;;;4.78;2.67;;;;;;;18.32;50.87;99583.22;2621426;54;20026;-68
2022/07/06 01:00:30;;;;;;;3.47;2.80;;;;;;;18.30;50.53;99579.97;2621851;54;20026;-67
2022/07/06 01:03:00;;;;;;;5.90;2.70;;;;;;;18.22;50.80;99577.59;2622070;54;20038;-67
2022/07/06 01:05:30;;;;;;;6.63;3.03;;;;;;;18.15;51.29;99574.19;2622436;39;20686;-67
2022/07/06 01:08:02;;;;;;;4.63;2.30;;;;;;;18.11;51.28;99571.13;2621512;54;20042;-67
2022/07/06 01:10:32;;;;;;;4.85;2.30;;;;;;;18.10;50.98;99574.03;2621173;54;20043;-68
2022/07/06 01:13:01;;;;;;;5.95;2.95;;;;;;;18.10;50.86;99572.19;2620815;54;20023;-67
2022/07/06 01:15:31;;;;;;;3.78;2.65;;;;;;;18.12;51.17;99575.44;2621171;54;20033;-67
2022/07/06 01:18:01;;;;;;;6.45;2.83;;;;;;;18.20;50.60;99580.47;2621062;54;20045;-67
2022/07/06 01:20:36;;;;;;;4.80;2.70;;;;;;;18.21;50.64;99581.31;2620314;54;20025;-68
2022/07/06 01:23:05;;;;;;;4.32;2.20;;;;;;;18.24;50.57;99578.19;2620807;54;20026;-68
2022/07/06 01:25:35;;;;;;;3.50;2.58;;;;;;;18.19;50.74;99570.81;2621337;54;20045;-68
2022/07/06 01:28:05;;;;;;;5.97;2.45;;;;;;;18.14;50.51;99573.38;2621134;51;20075;-68
2022/07/06 01:30:35;;;;;;;5.47;2.90;;;;;;;18.09;50.86;99572.41;2621793;54;20035;-67
2022/07/06 01:33:04;;;;;;;3.05;2.38;;;;;;;18.04;50.82;99565.88;2621989;39;20494;-67
2022/07/06 01:35:40;;;;;;;7.88;2.92;;;;;;;18.05;51.06;99570.16;2621533;47;20038;-67
2022/07/06 01:38:09;;;;;;;5.85;2.50;;;;;;;17.98;50.57;99569.41;2621683;54;20554;-68
2022/07/06 01:40:39;;;;;;;5.28;2.45;;;;;;;17.95;50.93;99575.19;2621395;54;20026;-67
2022/07/06 01:43:09;;;;;;;8.73;2.38;;;;;;;17.89;51.16;99573.44;2623068;54;20049;-67
2022/07/06 01:45:38;;;;;;;3.75;2.30;;;;;;;17.79;51.30;99575.78;2623166;54;20026;-68
2022/07/06 01:48:10;;;;;;;5.80;2.60;;;;;;;17.78;51.33;99571.47;2623275;54;20030;-67
2022/07/06 01:50:42;;;;;;;2.95;2.05;;;;;;;17.80;51.17;99574.75;2623173;54;20026;-68
2022/07/06 01:53:12;;;;;;;5.28;2.67;;;;;;;17.79;51.09;99573.09;2624106;54;20027;-68
2022/07/06 01:55:41;;;;;;;3.88;2.00;;;;;;;17.73;51.14;99571.28;2623857;39;20445;-67
2022/07/06 01:58:12;;;;;;;5.10;2.80;;;;;;;17.74;51.52;99568.41;2622257;54;20082;-68
2022/07/06 02:00:42;;;;;;;6.93;3.17;;;;;;;17.71;51.29;99573.34;2622859;51;20070;-68
2022/07/06 02:03:11;;;;;;;6.15;2.92;;;;;;;17.63;51.77;99577.13;2623255;46;20042;-68
2022/07/06 02:05:43;;;;;;;6.82;3.08;;;;;;;17.60;51.88;99585.59;2622587;51;20027;-68
2022/07/06 02:08:13;;;;;;;4.82;2.50;;;;;;;17.60;51.99;99582.94;2623901;54;20019;-67
2022/07/06 02:10:42;;;;;;;4.15;2.67;;;;;;;17.58;51.45;99585.00;2623546;54;20034;-68
2022/07/06 02:13:12;;;;;;;5.88;2.40;;;;;;;17.58;51.32;99585.81;2623539;39;20558;-68
2022/07/06 02:15:42;;;;;;;3.92;2.40;;;;;;;17.54;51.62;99591.81;2622568;54;20034;-68
2022/07/06 02:18:12;;;;;;;4.18;2.67;;;;;;;17.53;51.82;99590.19;2622726;54;20033;-67
2022/07/06 02:20:44;;;;;;;4.95;2.13;;;;;;;17.53;52.05;99584.84;2622686;54;20068;-68
2022/07/06 02:23:14;;;;;;;4.63;2.35;;;;;;;17.52;52.12;99589.38;2622908;54;20081;-67
2022/07/06 02:25:44;;;;;;;6.10;3.85;;;;;;;17.47;52.49;99583.88;2622410;54;20542;-68
2022/07/06 02:28:14;;;;;;;3.80;3.40;;;;;;;17.45;52.31;99583.25;2622636;54;20049;-68
2022/07/06 02:30:44;;;;;;;4.55;2.90;;;;;;;17.45;52.75;99574.41;2623012;54;20038;-68
2022/07/06 02:33:14;;;;;;;7.93;2.70;;;;;;;17.48;52.53;99582.81;2622958;54;20574;-68
2022/07/06 02:35:47;;;;;;;5.63;2.67;;;;;;;17.44;52.84;99576.28;2622642;54;20034;-68
2022/07/06 02:38:17;;;;;;;3.40;2.50;;;;;;;17.43;52.74;99576.47;2622660;47;20034;-67
2022/07/06 02:40:47;;;;;;;7.75;2.78;;;;;;;17.35;52.91;99580.25;2622499;54;20034;-67
2022/07/06 02:43:17;;;;;;;5.38;2.63;;;;;;;17.32;52.81;99586.84;2622646;54;20041;-68
2022/07/06 02:45:47;;;;;;;6.53;2.72;;;;;;;17.25;52.98;99591.41;2622800;47;20038;-68
2022/07/06 02:48:21;;;;;;;5.28;2.13;;;;;;;17.19;53.50;99589.63;2622718;54;20023;-68
2022/07/06 02:50:55;;;;;;;4.22;2.50;;;;;;;17.14;53.26;99592.09;2622854;54;20026;-68
2022/07/06 02:53:25;;;;;;;5.07;2.60;;;;;;;17.09;53.74;99587.41;2623088;54;20039;-68
2022/07/06 02:55:57;;;;;;;5.45;2.85;;;;;;;16.98;54.03;99596.13;2623114;39;20473;-68
2022/07/06 02:58:27;;;;;;;5.72;2.70;;;;;;;16.94;54.24;99607.44;2622541;47;20042;-68
2022/07/06 03:00:57;;;;;;;2.63;2.30;;;;;;;16.90;54.18;99608.91;2622167;47;20041;-68
2022/07/06 03:03:27;;;;;;;3.47;2.40;;;;;;;16.89;54.02;99609.94;2623700;54;20058;-69
2022/07/06 03:06:00;;;;;;;5.38;2.70;;;;;;;16.87;53.96;99612.00;2623101;47;20038;-69
2022/07/06 03:08:31;;;;;;;2.63;2.42;;;;;;;16.88;54.38;99608.31;2623553;54;20034;-66
2022/07/06 03:11:02;;;;;;;3.85;3.08;;;;;;;16.84;54.74;99611.41;2622804;46;20049;-66
2022/07/06 03:13:32;;;;;;;4.47;2.50;;;;;;;16.83;54.29;99617.78;2623841;39;20497;-68
2022/07/06 03:16:02;;;;;;;5.63;3.00;;;;;;;16.84;54.33;99613.25;2622645;54;20546;-67
2022/07/06 03:18:33;;;;;;;4.82;2.45;;;;;;;16.80;54.44;99614.72;2623161;47;20082;-68
2022/07/06 03:21:06;;;;;;;4.32;2.85;;;;;;;16.77;54.75;99623.94;2622940;54;20023;-67
2022/07/06 03:23:36;;;;;;;5.93;2.88;;;;;;;16.70;54.53;99623.16;2622758;51;20042;-68
2022/07/06 03:26:07;;;;;;;5.57;3.17;;;;;;;16.70;54.30;99630.34;2623277;54;20030;-67
2022/07/06 03:28:37;;;;;;;3.53;2.90;;;;;;;16.66;54.38;99624.59;2623192;39;20437;-67
2022/07/06 03:31:07;;;;;;;4.57;2.60;;;;;;;16.61;54.64;99621.72;2622642;54;20030;-68
2022/07/06 03:33:37;;;;;;;5.07;2.60;;;;;;;16.57;54.82;99624.03;2622440;54;20523;-68
2022/07/06 03:36:10;;;;;;;2.58;2.35;;;;;;;16.56;55.06;99621.56;2622723;54;20038;-68
2022/07/06 03:38:40;;;;;;;5.05;2.90;;;;;;;16.64;54.81;99623.16;2622905;54;20030;-68
2022/07/06 03:41:10;;;;;;;5.07;2.92;;;;;;;16.66;54.71;99621.94;2622555;54;20033;-68
2022/07/06 03:43:40;;;;;;;5.28;2.60;;;;;;;16.64;54.63;99626.66;2624264;39;20419;-68
2022/07/06 03:46:10;;;;;;;4.35;2.60;;;;;;;16.56;54.62;99624.22;2622228;54;20033;-67
2022/07/06 03:48:40;;;;;;;6.47;2.67;;;;;;;16.50;55.05;99628.56;2622801;54;20611;-68
2022/07/06 03:51:13;;;;;;;3.55;2.55;;;;;;;16.54;54.99;99631.63;2620472;47;20030;-67
2022/07/06 03:53:43;;;;;;;5.13;2.90;;;;;;;16.56;54.87;99627.72;2620465;47;20085;-67
2022/07/06 03:58:55;;;;;;;3.75;2.55;;;;;;;16.59;54.67;99631.81;2622074;54;20045;-65
2022/07/06 04:01:25;;;;;;;4.07;3.03;;;;;;;16.58;54.33;99631.00;2595159;54;20353;-69
2022/07/06 06:24:24;;;;;;;5.60;2.00;;;;;;;16.36;49.51;99693.66;2562536;54;20341;-69
2022/07/06 06:26:53;;;;;;;;;;;;;;;16.45;49.69;99695.09;2616535;51;20565;-69
2022/07/06 06:29:23;;;;;;;8.70;2.28;;;;;;;16.46;49.28;99696.75;2617927;39;20381;-69
2022/07/06 06:31:52;;;;;;;5.05;1.92;;;;;;;16.48;49.16;99696.50;2618248;39;20417;-70
2022/07/06 06:34:22;;;;;;;3.67;1.90;;;;;;;16.40;49.42;99700.22;2618388;54;20094;-70
2022/07/06 06:36:52;;;;;;;4.28;2.78;;;;;;;16.51;48.69;99699.59;2617908;54;20031;-69
2022/07/06 06:39:24;;;;;;;3.97;2.33;;;;;;;16.69;48.69;99701.59;2617844;54;20038;-67
2022/07/06 06:41:53;;;;;;;6.60;3.08;;;;;;;16.78;48.62;99697.69;2618810;54;20034;-67
2022/07/06 06:44:24;;;;;;;3.88;2.38;;;;;;;16.72;47.96;99700.34;2618398;54;20517;-66
2022/07/06 06:46:54;;;;;;;7.65;2.08;;;;;;;16.84;48.09;99698.69;2618322;54;20090;-66
2022/07/06 06:49:24;;;;;;;8.45;3.60;;;;;;;16.98;47.74;99702.13;2620970;54;20041;-68
2022/07/06 06:51:54;;;;;;;7.97;2.38;;;;;;;17.00;47.10;99711.56;2625226;54;20037;-67
2022/07/06 06:54:46;;;;;;;3.70;1.70;;;;;;;16.98;47.12;99708.31;2625429;54;20026;-68
2022/07/06 06:57:15;;;;;;;4.03;2.80;;;;;;;17.08;47.05;99700.66;2624634;47;20026;-68
2022/07/06 06:59:45;;;;;;;5.55;2.78;;;;;;;17.10;46.83;99695.09;2625086;54;20086;-68
2022/07/06 07:02:15;;;;;;;6.50;2.17;;;;;;;17.18;46.85;99696.69;2623497;54;20038;-67
2022/07/06 07:04:44;;;;;;;4.75;2.22;;;;;;;17.38;46.65;99696.59;2623538;54;20038;-67
2022/07/06 07:07:15;;;;;;;3.33;2.00;;;;;;;17.41;46.69;99701.50;2623835;54;20034;-67
2022/07/06 07:09:47;;;;;;;5.88;2.03;;;;;;;17.47;46.39;99709.50;2624004;31;20553;-68
2022/07/06 07:12:17;;;;;;;7.50;2.33;;;;;;;17.38;45.93;99704.59;2623317;54;20038;-66
2022/07/06 07:14:47;;;;;;;3.10;2.00;;;;;;;17.20;46.59;99700.78;2620977;54;20049;-66
2022/07/06 07:17:17;;;;;;;5.68;2.33;;;;;;;17.40;46.48;99707.88;2619916;54;20034;-67
2022/07/06 07:19:47;;;;;;;3.78;2.20;;;;;;;17.59;46.14;99717.63;2618787;54;20046;-68
2022/07/06 07:22:16;;;;;;;3.83;2.25;;;;;;;17.46;45.81;99713.19;2618900;54;20131;-68
2022/07/06 07:24:48;;;;;;;5.40;2.15;;;;;;;17.57;45.71;99714.34;2618192;47;20023;-68
2022/07/06 07:27:18;;;;;;;2.30;1.83;;;;;;;17.66;45.91;99718.41;2619246;54;20031;-68
2022/07/06 07:29:48;;;;;;;5.00;2.67;;;;;;;17.63;45.07;99721.50;2619160;54;20030;-68
2022/07/06 07:32:17;;;;;;;3.55;2.05;;;;;;;17.82;45.33;99717.91;2618432;54;20041;-67
2022/07/06 07:34:47;;;;;;;4.90;2.33;;;;;;;17.84;44.48;99715.03;2618681;47;20041;-66
2022/07/06 07:37:16;;;;;;;3.00;2.13;;;;;;;17.73;45.06;99716.50;2619440;39;20082;-66
2022/07/06 07:39:48;;;;;;;6.35;2.53;;;;;;;17.94;45.02;99719.88;2620366;54;20027;-68
2022/07/06 07:42:18;;;;;;;4.78;2.35;;;;;;;18.00;44.71;99716.31;2621683;54;20041;-67
2022/07/06 07:44:48;;;;;;;3.42;1.70;;;;;;;17.94;44.06;99709.19;2621253;47;20034;-68
2022/07/06 07:47:17;;;;;;;6.03;2.42;;;;;;;17.97;44.64;99703.41;2620646;47;20057;-67
2022/07/06 07:49:47;;;;;;;5.30;2.35;;;;;;;18.15;43.53;99702.63;2621122;54;20030;-66
2022/07/06 07:52:17;;;;;;;2.55;2.10;;;;;;;17.96;44.45;99709.75;2621205;54;20031;-64
2022/07/06 07:54:50;;;;;;;4.85;2.58;;;;;;;18.06;44.31;99700.22;2622329;54;20030;-65
2022/07/06 07:57:39;;;;;;;11.25;3.88;;;;;;;18.18;44.62;99700.31;2622180;54;20094;-66
2022/07/06 08:00:11;;;;;;;3.97;2.17;;;;;;;18.45;44.27;99697.38;2621929;39;20524;-66
2022/07/06 08:02:40;;;;;;;2.75;1.80;;;;;;;18.71;44.17;99707.03;2621619;47;20049;-66
2022/07/06 08:05:13;;;;;;;2.80;1.80;;;;;;;18.72;43.45;99709.47;2622737;54;20030;-67
2022/07/06 08:07:43;;;;;;;4.88;2.15;;;;;;;18.78;43.15;99705.09;2622463;54;20067;-68
2022/07/06 08:10:15;;;;;;;5.60;2.85;;;;;;;18.89;43.31;99704.31;2620927;54;20038;-66
2022/07/06 08:12:45;;;;;;;2.17;1.80;;;;;;;18.83;43.24;99691.84;2620001;54;20114;-66
2022/07/06 08:15:15;;;;;;;2.78;1.50;;;;;;;18.56;43.43;99710.03;2619070;54;20046;-67
2022/07/06 08:17:45;;;;;;;5.22;2.17;;;;;;;18.68;43.82;99700.22;2618748;54;20057;-67
2022/07/06 08:20:15;;;;;;;3.63;1.80;;;;;;;18.78;43.79;99694.38;2618141;47;20038;-67
2022/07/06 08:22:45;;;;;;;5.00;2.05;;;;;;;18.87;43.53;99694.88;2618134;47;20038;-66
2022/07/06 08:25:17;;;;;;;4.20;1.67;;;;;;;18.83;42.80;99685.66;2618619;54;20035;-66
2022/07/06 08:27:48;;;;;;;4.32;1.63;;;;;;;18.93;42.80;99692.09;2618432;54;20034;-67
2022/07/06 08:30:17;;;;;;;4.72;2.00;;;;;;;19.10;42.67;99681.59;2618833;54;20025;-66
2022/07/06 08:32:47;;;;;;;3.22;1.80;;;;;;;19.28;42.45;99694.13;2618763;39;20452;-64
2022/07/06 08:35:37;;;;;;;3.85;1.50;;;;;;;19.23;42.73;99686.78;2620089;54;20038;-65
2022/07/06 08:38:06;;;;;;;5.28;1.90;;;;;;;19.37;41.92;99697.31;2621981;54;20029;-67
2022/07/06 08:40:42;;;;;;;3.72;1.75;;;;;;;19.39;41.97;99704.09;2622966;39;20433;-68
2022/07/06 08:43:14;;;;;;;5.70;1.70;;;;;;;19.49;41.77;99698.16;2621767;54;20034;-66
2022/07/06 08:45:44;;;;;;;4.03;2.05;;;;;;;19.66;41.48;99685.75;2620674;54;20078;-66
2022/07/06 08:48:15;;;;;;;3.83;2.17;;;;;;;19.76;41.16;99687.91;2618859;47;20022;-66
2022/07/06 08:50:45;;;;;;;3.20;2.05;;;;;;;19.78;40.30;99678.53;2619395;54;20019;-68
2022/07/06 08:53:14;;;;;;;5.63;1.48;;;;;;;19.78;40.22;99688.47;2620192;54;20034;-66
2022/07/06 08:55:47;;;;;;;3.72;1.85;;;;;;;19.86;39.45;99687.31;2620041;54;20027;-66
2022/07/06 08:58:16;;;;;;;6.25;1.60;;;;;;;19.79;39.33;99690.91;2620151;54;20019;-66
2022/07/06 09:00:46;;;;;;;4.70;1.90;;;;;;;19.86;39.49;99684.63;2621581;47;20582;-66
2022/07/06 09:03:16;;;;;;;5.22;2.45;;;;;;;19.88;39.08;99695.94;2621796;39;20449;-65
2022/07/06 09:05:48;;;;;;;4.40;1.60;;;;;;;19.94;38.80;99686.97;2619205;47;20039;-65
2022/07/06 09:08:25;;;;;;;5.57;1.55;;;;;;;20.09;38.97;99686.53;2620536;31;20527;-65
2022/07/06 09:10:58;;;;;;;7.95;1.80;;;;;;;20.18;38.80;99699.34;2623735;54;20022;-65
2022/07/06 09:13:27;;;;;;;3.45;1.67;;;;;;;20.21;38.88;99684.66;2622946;54;20573;-67
2022/07/06 09:15:57;;;;;;;4.80;1.85;;;;;;;20.29;38.90;99684.31;2620834;54;20549;-65
2022/07/06 09:18:48;;;;;;;2.88;1.50;;;;;;;20.24;38.36;99681.47;2620942;54;20056;-66
2022/07/06 09:21:25;;;;;;;2.22;1.20;;;;;;;20.29;37.90;99681.63;2619899;54;20026;-66
2022/07/06 09:23:58;;;;;;;7.57;1.48;;;;;;;20.25;37.70;99683.94;2619805;54;20031;-65
2022/07/06 09:26:31;;;;;;;;;;;;;;;20.31;37.96;99678.69;2620237;54;20037;-65
2022/07/06 09:29:01;;;;;;;5.75;1.80;;;;;;;20.29;37.94;99679.75;2619425;54;19950;-67
2022/07/06 09:31:31;;;;;;;2.83;1.70;;;;;;;20.32;38.06;99675.75;2620023;54;20026;-65
2022/07/06 09:34:05;;;;;;;3.88;2.00;;;;;;;20.36;37.98;99682.28;2619374;54;20130;-66
2022/07/06 09:36:43;;;;;;;1.98;1.58;;;;;;;20.06;38.41;99685.13;2619200;54;20030;-66
2022/07/06 09:39:21;;;;;;;1.42;1.27;;;;;;;19.88;38.84;99679.84;2619553;54;20031;-67
2022/07/06 09:41:55;;;;;;;2.10;1.45;;;;;;;20.12;39.08;99688.72;2619736;54;20042;-66
2022/07/06 09:44:27;;;;;;;2.40;1.75;;;;;;;20.16;37.94;99681.84;2620111;54;20043;-67
2022/07/06 09:46:59;;;;;;;5.47;1.45;;;;;;;20.26;37.68;99692.81;2619319;47;20029;-65
2022/07/06 09:49:29;;;;;;;2.97;1.38;;;;;;;20.35;37.07;99695.97;2619872;39;20227;-65
2022/07/06 09:52:01;;;;;;;3.28;1.23;;;;;;;20.40;37.04;99691.50;2618596;54;20034;-67
2022/07/06 09:54:31;;;;;;;2.28;1.52;;;;;;;20.36;36.77;99703.78;2619213;54;20027;-66
2022/07/06 09:57:04;;;;;;;3.75;1.90;;;;;;;20.08;36.28;99693.72;2619985;47;20034;-67
2022/07/06 09:59:38;;;;;;;1.90;1.60;;;;;;;19.93;36.83;99696.09;2619085;54;20057;-66
2022/07/06 10:02:09;;;;;;;2.75;1.80;;;;;;;20.07;37.01;99693.97;2619295;54;20050;-66
2022/07/06 10:04:38;;;;;;;2.05;1.75;;;;;;;20.21;37.03;99698.09;2618787;54;20026;-66
2022/07/06 10:07:09;;;;;;;2.13;1.88;;;;;;;20.38;36.82;99701.69;2618774;54;20022;-66
2022/07/06 10:09:40;;;;;;;2.80;2.45;;;;;;;20.55;36.27;99699.13;2618438;54;20038;-67
2022/07/06 10:12:18;;;;;;;3.80;2.50;;;;;;;20.60;36.34;99698.41;2617880;47;20049;-66
2022/07/06 10:14:51;;;;;;;3.88;2.80;;;;;;;20.44;36.58;99707.97;2617898;47;20042;-66
2022/07/06 10:17:21;;;;;;;5.55;4.25;;;;;;;20.53;36.28;99701.22;2618898;54;20042;-64
2022/07/06 10:19:52;;;;;;;4.03;3.63;;;;;;;20.63;36.05;99695.25;2619022;54;20033;-66
2022/07/06 10:22:23;;;;;;;3.72;2.85;;;;;;;20.60;35.60;99693.84;2618432;54;20038;-65
2022/07/06 10:24:53;;;;;;;3.60;3.08;;;;;;;20.66;35.75;99695.63;2618533;47;20027;-66
2022/07/06 10:27:27;;;;;;;4.78;3.40;;;;;;;20.62;35.66;99699.81;2620017;39;20410;-66
2022/07/06 10:29:56;;;;;;;;;;;;;;;20.65;35.90;99693.97;2619618;54;20026;-66
2022/07/06 10:32:27;;;;;;;5.50;3.50;;;;;;;20.73;35.35;99706.22;2618993;54;19938;-67
2022/07/06 10:34:57;;;;;;;2.92;2.63;;;;;;;20.79;35.36;99699.91;2619218;54;20534;-68
2022/07/06 10:37:29;;;;;;;7.60;4.78;;;;;;;20.89;35.55;99697.41;2619018;54;20041;-66
2022/07/06 10:42:51;;;;;;;4.90;3.00;;;;;;;20.87;34.81;99696.03;2617281;54;20034;-67
2022/07/06 10:45:54;;;;;;;3.53;2.80;;;;;;;20.84;34.42;99691.13;2618361;54;20643;-65
2022/07/06 10:48:24;;;;;;;4.03;2.80;;;;;;;20.74;34.01;99692.56;2618471;54;20142;-66
2022/07/06 10:51:01;;;;;;;3.42;2.58;;;;;;;20.61;34.32;99697.34;2618863;54;20027;-68
2022/07/06 10:53:35;;;;;;;2.38;2.00;;;;;;;20.76;34.09;99692.31;2619894;39;20461;-68
2022/07/06 10:56:07;;;;;;;3.20;2.85;;;;;;;20.88;34.24;99700.34;2619110;47;20042;-67
2022/07/06 10:58:44;;;;;;;3.28;2.10;;;;;;;21.06;34.00;99699.34;2618958;54;20022;-66
2022/07/06 11:01:14;;;;;;;3.17;2.35;;;;;;;20.97;34.16;99696.22;2619718;54;20034;-65
2022/07/06 11:03:46;;;;;;;2.33;2.13;;;;;;;21.16;34.31;99691.50;2619799;54;20036;-66
2022/07/06 11:06:18;;;;;;;2.55;2.22;;;;;;;21.17;33.65;99693.13;2619963;39;20403;-64
2022/07/06 11:08:53;;;;;;;2.35;2.13;;;;;;;21.13;33.29;99690.09;2620186;39;20449;-65
2022/07/06 11:11:24;;;;;;;3.42;1.95;;;;;;;20.94;33.60;99689.47;2619702;54;20030;-65
2022/07/06 11:14:03;;;;;;;4.82;2.30;;;;;;;20.98;34.21;99695.16;2619328;47;20046;-66
2022/07/06 11:16:36;;;;;;;3.30;1.95;;;;;;;21.17;33.63;99676.97;2619437;54;20041;-66
2022/07/06 11:19:12;;;;;;;2.97;1.80;;;;;;;21.32;33.08;99677.28;2618119;47;20034;-66
2022/07/06 11:21:46;;;;;;;3.05;1.63;;;;;;;21.03;33.55;99666.53;2618629;54;20046;-67
2022/07/06 11:24:18;;;;;;;1.90;1.70;;;;;;;21.10;33.14;99669.06;2618441;54;20030;-66
2022/07/06 11:26:50;;;;;;;2.70;1.67;;;;;;;21.20;33.75;99663.88;2617962;47;20030;-66
2022/07/06 11:29:24;;;;;;;3.47;1.60;;;;;;;21.21;32.98;99672.75;2617775;47;20066;-64
2022/07/06 11:31:56;;;;;;;2.28;1.77;;;;;;;21.13;33.34;99657.00;2618814;39;20415;-64
2022/07/06 11:34:27;;;;;;;2.13;1.67;;;;;;;21.13;33.33;99662.38;2619587;39;20082;-67
2022/07/06 11:36:59;;;;;;;4.05;2.13;;;;;;;21.31;33.31;99659.50;2619624;54;20073;-65
2022/07/06 11:39:29;;;;;;;1.77;1.58;;;;;;;21.63;33.14;99667.06;2620867;54;20538;-65
2022/07/06 11:42:00;;;;;;;1.75;1.63;;;;;;;21.62;33.00;99666.25;2622304;39;20396;-65
2022/07/06 11:44:32;;;;;;;5.22;1.95;;;;;;;21.72;33.42;99660.22;2620972;54;20042;-66
2022/07/06 11:47:03;;;;;;;2.88;1.60;;;;;;;21.77;33.25;99666.50;2620047;54;20019;-69
2022/07/06 11:49:34;;;;;;;3.65;1.38;;;;;;;22.01;32.67;99664.44;2619214;39;20500;-67
2022/07/06 11:52:08;;;;;;;1.67;1.30;;;;;;;21.82;32.60;99667.63;2622104;54;20027;-67
2022/07/06 11:54:38;;;;;;;4.38;2.00;;;;;;;21.81;32.41;99663.31;2623200;54;20026;-65
2022/07/06 11:57:11;;;;;;;2.90;1.60;;;;;;;21.81;32.78;99658.75;2621786;54;20027;-65
2022/07/06 11:59:46;;;;;;;;;;;;;;;21.97;32.36;99660.63;2619037;47;20027;-64
2022/07/06 12:02:17;;;;;;;2.40;1.67;;;;;;;22.14;32.26;99651.75;2618941;39;20479;-65
2022/07/06 12:04:50;;;;;;;5.60;1.40;;;;;;;22.29;31.91;99649.25;2618635;54;20069;-65
2022/07/06 12:07:20;;;;;;;1.75;1.30;;;;;;;22.52;31.83;99647.38;2618304;54;20106;-65
2022/07/06 12:09:50;;;;;;;2.05;1.58;;;;;;;22.40;31.68;99650.19;2618652;54;20039;-66
2022/07/06 12:12:20;;;;;;;3.60;1.60;;;;;;;22.15;31.87;99650.66;2619532;54;20030;-64
2022/07/06 12:14:55;;;;;;;3.40;1.40;;;;;;;22.19;32.20;99641.84;2619447;54;20577;-65
2022/07/06 12:17:25;;;;;;;3.08;1.85;;;;;;;22.38;32.10;99636.19;2619860;54;20030;-65
2022/07/06 12:19:59;;;;;;;1.50;1.40;;;;;;;22.36;32.01;99636.41;2618761;47;20030;-64
2022/07/06 12:22:29;;;;;;;5.40;1.50;;;;;;;22.59;31.58;99634.56;2618950;54;20027;-66
2022/07/06 12:24:58;;;;;;;2.55;1.48;;;;;;;22.79;31.49;99626.69;2619707;54;20031;-66
2022/07/06 12:27:36;;;;;;;3.05;1.60;;;;;;;22.88;31.74;99625.19;2619851;54;20554;-66
2022/07/06 12:30:16;;;;;;;2.58;1.40;;;;;;;23.08;30.95;99615.72;2619626;54;20030;-65
2022/07/06 12:33:18;;;;;;;2.67;1.33;;;;;;;23.06;30.75;99609.75;2619346;54;20041;-66
2022/07/06 12:35:47;;;;;;;3.90;1.75;;;;;;;22.99;31.17;99613.47;2619488;54;20078;-67
2022/07/06 12:38:24;;;;;;;5.20;1.30;;;;;;;23.13;30.37;99611.16;2619787;54;20118;-64
2022/07/06 12:40:54;;;;;;;2.15;1.40;;;;;;;22.81;31.26;99616.47;2618731;54;20045;-67
2022/07/06 12:43:40;;;;;;;5.53;2.22;;;;;;;22.74;31.53;99615.88;2620893;54;20026;-67
2022/07/06 12:46:35;;;;;;;1.65;1.30;;;;;;;22.96;31.21;99608.56;2623145;54;20026;-68
2022/07/06 12:49:12;;;;;;;3.53;1.50;;;;;;;23.07;30.99;99609.50;2624530;39;20434;-68
2022/07/06 12:51:53;;;;;;;4.80;1.50;;;;;;;23.08;31.08;99613.81;2623287;54;20038;-68
2022/07/06 12:54:23;;;;;;;3.47;1.55;;;;;;;23.39;30.91;99608.69;2623825;54;20041;-68
2022/07/06 12:57:05;;;;;;;3.85;1.30;;;;;;;23.69;30.29;99597.38;2625015;39;20463;-67
2022/07/06 12:59:36;;;;;;;5.57;1.40;;;;;;;23.63;30.04;99603.75;2622987;54;20030;-67
2022/07/06 13:02:10;;;;;;;2.33;1.20;;;;;;;23.68;30.33;99598.47;2621284;54;20545;-68
2022/07/06 13:04:40;;;;;;;1.60;1.30;;;;;;;23.91;30.14;99602.63;2621130;54;20101;-71
2022/07/06 13:07:20;;;;;;;2.42;1.23;;;;;;;23.95;29.60;99598.34;2620311;54;20557;-69
2022/07/06 13:09:50;;;;;;;4.18;1.30;;;;;;;24.08;29.53;99605.16;2619739;54;20034;-69
2022/07/06 13:12:20;;;;;;;3.03;1.40;;;;;;;24.15;29.36;99606.56;2620165;39;20438;-70
2022/07/06 13:14:50;;;;;;;2.58;1.30;;;;;;;24.14;29.29;99604.13;2620772;39;20445;-70
2022/07/06 13:17:21;;;;;;;1.42;1.10;;;;;;;;;;2621672;54;20039;-69
2022/07/06 13:19:51;;;;;;;3.38;1.13;;;;;;;24.12;28.79;99598.97;2622588;54;20038;-70
2022/07/06 13:22:21;;;;;;;3.92;1.00;;;;;;;24.17;28.55;99593.63;2621294;54;20829;-70
2022/07/06 13:24:51;;;;;;;3.03;1.23;;;;;;;24.20;28.90;99594.97;2620259;54;20550;-70
2022/07/06 13:27:20;;;;;;;3.45;1.00;;;;;;;24.37;28.46;99586.66;2620788;54;20026;-70
2022/07/06 13:29:50;;;;;;;3.22;1.10;;;;;;;24.41;28.57;99576.97;2620684;54;20569;-69
2022/07/06 13:32:22;;;;;;;1.55;0.80;;;;;;;24.49;28.35;99578.38;2621816;54;20058;-69
2022/07/06 13:34:52;;;;;;;3.33;1.00;;;;;;;24.44;27.97;99576.47;2620814;54;20026;-70
2022/07/06 13:37:22;;;;;;;1.05;0.80;;;;;;;24.53;28.28;99582.97;2620670;54;20569;-70
2022/07/06 13:39:52;;;;;;;1.90;0.90;;;;;;;24.61;27.83;99570.84;2620503;54;20576;-70
2022/07/06 13:42:22;;;;;;;1.23;0.90;;;;;;;24.35;28.52;99573.44;2620994;39;20422;-69
2022/07/06 13:44:51;;;;;;;2.22;1.20;;;;;;;24.64;27.99;99579.22;2620351;46;20079;-72
2022/07/06 13:47:23;;;;;;;2.72;1.02;;;;;;;24.56;27.75;99585.16;2620133;54;20648;-70
2022/07/06 13:49:53;;;;;;;2.37;1.00;;;;;;;23.91;28.40;99567.53;2620124;54;20038;-70
2022/07/06 13:52:22;;;;;;;1.45;0.90;;;;;;;24.10;28.63;99555.22;2620948;54;20034;-71
2022/07/06 13:54:52;;;;;;;3.08;1.10;;;;;;;23.51;29.54;99568.06;2620770;54;20034;-69
2022/07/06 13:57:29;;;;;;;1.73;0.98;;;;;;;23.67;29.52;99565.22;2621173;54;20049;-71
2022/07/06 13:59:59;;;;;;;1.23;1.10;;;;;;;23.78;29.15;99558.00;2621120;54;20522;-69
2022/07/06 14:02:32;;;;;;;1.48;0.93;;;;;;;23.81;29.22;99560.19;2621234;54;20090;-69
2022/07/06 14:05:01;;;;;;;8.10;1.48;;;;;;;23.88;29.12;99554.56;2620774;54;20034;-70
2022/07/06 14:07:31;;;;;;;2.67;0.82;;;;;;;24.03;29.10;99554.63;2620621;54;20031;-71
2022/07/06 14:10:00;;;;;;;3.60;1.30;;;;;;;23.96;29.04;99554.91;2620253;54;20565;-70
2022/07/06 14:12:30;;;;;;;3.78;0.90;;;;;;;23.87;29.31;99561.84;2620281;54;20027;-70
2022/07/06 14:14:59;;;;;;;9.60;1.35;;;;;;;23.62;30.01;99554.38;2620326;54;20039;-70
2022/07/06 14:17:31;;;;;;;6.28;1.48;;;;;;;23.97;29.44;99564.63;2619605;54;20041;-70
2022/07/06 14:20:01;;;;;;;2.22;0.88;;;;;;;23.99;29.84;99553.53;2618030;54;20530;-68
2022/07/06 14:22:31;;;;;;;2.38;0.90;;;;;;;24.04;29.17;99556.25;2618748;54;20068;-68
2022/07/06 14:25:00;;;;;;;6.05;1.00;;;;;;;24.11;29.30;99558.72;2618924;54;20559;-70